createdAt,value
2019-03-19T19:03:21.813Z,2.52
2019-03-19T19:05:50.260Z,2.50
2019-03-19T19:08:18.717Z,2.42
2019-03-19T19:10:47.080Z,2.75
2019-03-19T19:13:15.384Z,2.40
2019-03-19T19:15:43.747Z,2.77
2019-03-19T19:18:12.124Z,2.80
2019-03-19T19:20:40.411Z,2.77
2019-03-19T19:23:08.795Z,2.67
2019-03-19T19:25:37.148Z,2.37
2019-03-19T19:28:05.541Z,2.40
2019-03-19T19:30:34.016Z,2.15
2019-03-19T19:33:02.767Z,2.35
2019-03-19T19:35:31.228Z,2.70
2019-03-19T19:37:59.734Z,2.75
2019-03-19T19:40:28.121Z,2.30
2019-03-19T19:42:56.464Z,2.80
2019-03-19T19:45:24.852Z,2.80
2019-03-19T19:47:53.255Z,2.50
2019-03-19T19:50:22.847Z,2.40
2019-03-19T19:52:51.226Z,2.58
2019-03-19T19:55:19.761Z,2.50
2019-03-19T19:57:48.134Z,2.70
2019-03-19T20:00:18.602Z,2.35
2019-03-19T20:02:46.970Z,2.52
2019-03-19T20:05:15.360Z,2.72
2019-03-19T20:07:43.741Z,3.05
2019-03-19T20:10:18.671Z,2.87
2019-03-19T20:12:47.048Z,2.90
2019-03-19T20:15:15.441Z,2.65
2019-03-19T20:17:43.975Z,3.17
2019-03-19T20:20:23.571Z,3.72
2019-03-19T20:22:52.529Z,3.30
2019-03-19T20:25:21.117Z,4.10
2019-03-19T20:27:49.680Z,4.30
2019-03-19T20:30:25.160Z,3.37
2019-03-19T20:32:53.473Z,3.50
2019-03-19T20:35:21.767Z,3.52
2019-03-19T20:37:50.244Z,2.90
2019-03-19T20:40:18.938Z,3.60
2019-03-19T20:42:47.607Z,3.08
2019-03-19T20:45:22.386Z,2.55
2019-03-19T20:47:50.977Z,2.90
2019-03-19T20:50:28.092Z,2.90
2019-03-19T20:52:56.761Z,2.75
2019-03-19T20:55:25.440Z,2.72
2019-03-19T20:57:54.004Z,2.30
2019-03-19T21:00:22.880Z,2.67
2019-03-19T21:02:51.843Z,2.85
2019-03-19T21:05:20.755Z,2.40
2019-03-19T21:07:49.737Z,2.30
2019-03-19T21:10:25.232Z,2.70
2019-03-19T21:12:54.160Z,2.70
2019-03-19T21:15:30.179Z,2.40
2019-03-19T21:17:59.126Z,2.65
2019-03-19T21:20:28.402Z,2.52
2019-03-19T21:22:57.255Z,2.70
2019-03-19T21:25:25.892Z,2.70
2019-03-19T21:27:54.488Z,2.60
2019-03-19T21:30:23.806Z,2.77
2019-03-19T21:32:52.396Z,2.60
2019-03-19T21:35:27.934Z,2.50
2019-03-19T21:37:56.762Z,3.25
2019-03-19T21:40:25.585Z,3.30
2019-03-19T21:42:54.140Z,2.90
2019-03-19T21:45:23.173Z,3.33
2019-03-19T21:47:51.871Z,3.37
2019-03-19T21:50:24.375Z,3.05
2019-03-19T21:52:52.967Z,2.90
2019-03-19T21:55:21.408Z,3.47
2019-03-19T21:57:49.779Z,2.65
2019-03-19T22:00:19.260Z,2.95
2019-03-19T22:02:47.901Z,2.70
2019-03-19T22:05:16.310Z,2.83
2019-03-19T22:07:44.680Z,3.12
2019-03-19T22:10:14.659Z,2.42
2019-03-19T22:12:43.042Z,2.98
2019-03-19T22:15:14.660Z,2.65
2019-03-19T22:17:43.116Z,2.30
2019-03-19T22:20:11.505Z,2.60
2019-03-19T22:22:40.184Z,3.52
2019-03-19T22:25:10.570Z,3.22
2019-03-19T22:27:38.964Z,3.75
2019-03-19T22:30:18.459Z,3.87
2019-03-19T22:32:46.812Z,4.03
2019-03-19T22:35:15.205Z,3.98
2019-03-19T22:37:43.569Z,4.28
2019-03-19T22:40:14.643Z,3.87
2019-03-19T22:43:02.691Z,3.70
2019-03-19T22:45:31.086Z,4.20
2019-03-19T22:47:59.441Z,4.33
2019-03-19T22:50:28.924Z,3.10
2019-03-19T22:52:57.302Z,3.90
2019-03-19T22:55:29.321Z,4.50
2019-03-19T22:57:55.844Z,4.85
2019-03-19T23:00:38.022Z,4.42
2019-03-19T23:03:07.456Z,5.30
2019-03-19T23:05:36.171Z,5.35
2019-03-19T23:08:04.941Z,6.70
2019-03-19T23:10:33.326Z,5.72
2019-03-19T23:13:01.673Z,5.92
2019-03-19T23:15:30.050Z,5.12
2019-03-19T23:17:58.376Z,4.33
2019-03-19T23:20:26.883Z,5.10
2019-03-19T23:22:55.289Z,4.30
2019-03-19T23:25:23.645Z,4.80
2019-03-19T23:27:52.067Z,4.28
2019-03-19T23:30:22.800Z,4.67
2019-03-19T23:32:51.229Z,4.20
2019-03-19T23:35:19.664Z,4.15
2019-03-19T23:37:48.017Z,4.20
2019-03-19T23:40:17.464Z,3.72
2019-03-19T23:42:45.889Z,4.05
2019-03-19T23:45:14.261Z,4.53
2019-03-19T23:47:42.660Z,4.35
2019-03-19T23:50:13.259Z,4.50
2019-03-19T23:52:41.544Z,4.10
2019-03-19T23:55:10.340Z,4.30
2019-03-19T23:57:38.766Z,3.80
